Airport View

Enter AWOS ICAO identifier for current METAR.

ex. KFNL

KAIO 200250Z AUTO 10SM BKN010 OVC036 04/04 A3020 RMK AO2

20 Mar 2019 02:53

Frequency: 127.825

Phone: 712-243-2748

Other Area AWOS: KHNR - KADU - KRDK - KCBF

TAF KOMA 192320Z 2000/2024 34004KT 3SM -RA BR SCT030 OVC050 FM200200 34005KT 6SM BR OVC025 FM200700 33006KT 6SM BR OVC050 FM202000 31013G20KT P6SM SKC